Time;durP1;ratioP1;P1;durP2;ratioP2;P2;SDS_P1;SDS_P2;PMS_P1;PMS_P2;Temp;Humidity;BMP_temperature;BMP_pressure;BME280_temperature;BME280_humidity;BME280_pressure;Samples;Min_cycle;Max_cycle;Signal;HPM_P1;HPM_P2
2022/12/08 00:01:09;;;;;;;27.37;18.47;;;-5.40;99.90;;;;;;5016551;28;21469;-73
2022/12/08 00:03:35;;;;;;;23.43;18.00;;;-5.90;99.90;;;;;;5016751;28;20279;-73
2022/12/08 00:11:32;;;;;;;25.10;16.97;;;-5.60;99.90;;;;;;5016759;28;20429;-73
2022/12/08 00:13:57;;;;;;;27.23;18.27;;;-6.30;99.90;;;;;;5021477;28;20467;-76
2022/12/08 00:16:23;;;;;;;27.50;17.50;;;-6.90;99.90;;;;;;5016056;28;20184;-81
2022/12/08 00:18:49;;;;;;;25.13;17.57;;;-6.10;99.90;;;;;;5016453;28;20186;-75
2022/12/08 00:21:14;;;;;;;29.60;17.90;;;-5.90;99.90;;;;;;5016675;28;20185;-76
2022/12/08 00:23:40;;;;;;;23.80;16.20;;;-6.80;99.90;;;;;;5029110;28;20495;-77
2022/12/08 00:26:06;;;;;;;41.17;21.13;;;-6.70;99.90;;;;;;5016501;28;20273;-79
2022/12/08 00:28:33;;;;;;;24.97;18.37;;;-7.10;99.90;;;;;;5016583;28;20177;-75
2022/12/08 00:30:59;;;;;;;29.50;19.13;;;-7.20;99.90;;;;;;5016060;28;20434;-76
2022/12/08 00:33:27;;;;;;;27.10;17.90;;;-6.50;99.90;;;;;;5016171;28;20831;-79
2022/12/08 00:35:53;;;;;;;27.23;17.50;;;-6.90;99.90;;;;;;5016150;28;20454;-75
2022/12/08 00:38:19;;;;;;;23.77;16.87;;;-6.80;99.90;;;;;;5015697;28;20904;-78
2022/12/08 00:40:46;;;;;;;25.37;19.13;;;-5.60;99.90;;;;;;5016231;28;20491;-77
2022/12/08 00:43:12;;;;;;;27.40;19.10;;;-6.70;99.90;;;;;;5016148;28;20328;-78
2022/12/08 00:45:38;;;;;;;24.40;17.53;;;-7.10;99.90;;;;;;5016718;28;20426;-73
2022/12/08 00:48:05;;;;;;;27.33;18.90;;;-7.10;99.90;;;;;;5016229;28;20517;-73
2022/12/08 00:50:31;;;;;;;23.10;16.53;;;-7.20;99.90;;;;;;5016236;28;20419;-75
2022/12/08 00:52:56;;;;;;;25.73;17.87;;;-8.60;99.90;;;;;;5015632;28;20465;-80
2022/12/08 00:55:22;;;;;;;25.10;17.30;;;-8.20;99.90;;;;;;5015729;28;20204;-80
2022/12/08 00:57:48;;;;;;;23.63;17.47;;;-8.30;99.90;;;;;;5016084;28;20310;-73
2022/12/08 01:00:14;;;;;;;27.67;18.77;;;-8.20;99.90;;;;;;5015129;28;20271;-78
2022/12/08 01:02:40;;;;;;;23.93;16.73;;;-8.60;99.90;;;;;;5015937;28;20232;-78
2022/12/08 01:05:06;;;;;;;30.30;21.10;;;-8.00;99.90;;;;;;5015764;28;21003;-79
2022/12/08 01:07:32;;;;;;;28.13;19.20;;;-8.30;99.90;;;;;;5015905;28;20181;-74
2022/12/08 01:09:58;;;;;;;31.97;20.50;;;-8.40;99.90;;;;;;5014351;28;20865;-76
2022/12/08 01:12:24;;;;;;;29.63;18.97;;;-8.50;99.90;;;;;;5028078;28;20184;-73
2022/12/08 01:14:49;;;;;;;27.43;18.53;;;-8.50;99.90;;;;;;5016177;28;20180;-74
2022/12/08 01:17:15;;;;;;;26.30;17.93;;;-8.70;99.90;;;;;;5015141;28;20956;-77
2022/12/08 01:19:41;;;;;;;26.03;18.73;;;-8.80;99.90;;;;;;5016390;28;20217;-81
2022/12/08 01:22:07;;;;;;;35.83;21.63;;;-9.00;99.90;;;;;;5014935;28;20182;-78
2022/12/08 01:24:32;;;;;;;31.43;20.53;;;-9.20;99.90;;;;;;5015493;28;20597;-75
2022/12/08 01:26:58;;;;;;;31.47;17.93;;;-9.00;99.90;;;;;;5019014;28;20188;-77
2022/12/08 01:29:26;;;;;;;35.23;19.73;;;-8.40;99.90;;;;;;5017186;28;20192;-74
2022/12/08 01:31:51;;;;;;;43.77;23.10;;;-8.20;99.90;;;;;;5015948;28;20476;-74
2022/12/08 01:34:18;;;;;;;28.03;20.90;;;-8.30;99.90;;;;;;5015005;28;20458;-74
2022/12/08 01:36:43;;;;;;;28.67;20.37;;;-8.30;99.90;;;;;;5014969;28;20272;-73
2022/12/08 01:39:18;;;;;;;26.13;18.47;;;-7.90;99.90;;;;;;5015125;28;20792;-75
2022/12/08 01:41:46;;;;;;;32.07;21.63;;;-8.20;99.90;;;;;;5015238;28;20177;-74
2022/12/08 01:44:12;;;;;;;31.37;20.00;;;-7.90;99.90;;;;;;5015036;28;20426;-73
2022/12/08 01:46:41;;;;;;;37.23;21.50;;;-6.40;99.90;;;;;;5014811;28;20493;-76
2022/12/08 01:49:06;;;;;;;38.23;21.83;;;-7.20;99.90;;;;;;5014340;28;20190;-75
2022/12/08 01:51:37;;;;;;;34.63;20.30;;;-7.30;99.90;;;;;;5014885;28;20434;-76
2022/12/08 01:54:05;;;;;;;51.63;21.87;;;-7.40;99.90;;;;;;5014599;28;20220;-77
2022/12/08 01:56:54;;;;;;;32.83;21.27;;;-8.20;99.90;;;;;;5015174;28;20431;-75
2022/12/08 01:59:21;;;;;;;33.27;19.80;;;-7.50;99.90;;;;;;5025731;28;20869;-76
2022/12/08 02:01:47;;;;;;;34.60;21.33;;;-7.10;99.90;;;;;;5014878;28;20744;-73
2022/12/08 02:04:12;;;;;;;30.50;19.40;;;-7.00;99.90;;;;;;5028590;28;20443;-78
2022/12/08 02:06:42;;;;;;;37.83;23.77;;;-7.40;99.90;;;;;;5028060;28;20478;-74
2022/12/08 02:09:07;;;;;;;41.67;22.20;;;-7.20;99.90;;;;;;5014613;28;20185;-74
2022/12/08 02:11:33;;;;;;;37.67;21.97;;;-7.30;99.90;;;;;;5014609;28;20434;-75
2022/12/08 02:14:00;;;;;;;39.80;23.27;;;-7.10;99.90;;;;;;5014401;28;20212;-74
2022/12/08 02:16:50;;;;;;;34.73;21.00;;;-6.60;99.90;;;;;;5018194;28;20193;-74
2022/12/08 02:19:40;;;;;;;38.73;23.57;;;-6.20;99.90;;;;;;5014894;28;20933;-75
2022/12/08 02:22:06;;;;;;;39.07;21.93;;;-6.70;99.90;;;;;;5027578;28;20442;-75
2022/12/08 02:24:57;;;;;;;31.70;22.10;;;-7.80;99.90;;;;;;5014816;28;20741;-74
2022/12/08 02:27:54;;;;;;;37.80;20.73;;;-8.10;99.90;;;;;;5014469;28;20589;-75
2022/12/08 02:30:37;;;;;;;39.33;21.83;;;-8.30;99.90;;;;;;5019893;28;20458;-71
2022/12/08 02:33:33;;;;;;;31.60;20.53;;;-8.00;99.90;;;;;;5013132;28;20461;-77
2022/12/08 02:36:24;;;;;;;32.70;22.77;;;-8.20;99.90;;;;;;5022940;28;20509;-72
2022/12/08 02:39:14;;;;;;;31.53;22.40;;;-7.90;99.90;;;;;;5013614;28;20740;-72
2022/12/08 02:41:45;;;;;;;37.13;20.43;;;-7.70;99.90;;;;;;5031585;28;20426;-74
2022/12/08 02:44:26;;;;;;;38.83;21.50;;;-7.60;99.90;;;;;;5014641;28;20946;-74
2022/12/08 02:47:11;;;;;;;31.70;20.47;;;-8.10;99.90;;;;;;5021911;28;20512;-74
2022/12/08 02:49:37;;;;;;;36.13;23.10;;;-10.50;99.90;;;;;;5014899;28;20434;-77
2022/12/08 02:52:05;;;;;;;35.33;22.20;;;-8.00;99.90;;;;;;5014501;28;20729;-74
2022/12/08 02:54:32;;;;;;;34.40;19.80;;;-7.90;99.90;;;;;;5014391;28;20205;-74
2022/12/08 02:57:10;;;;;;;35.57;22.13;;;-8.10;99.90;;;;;;5019400;28;20426;-77
2022/12/08 03:00:12;;;;;;;34.40;23.70;;;-8.40;99.90;;;;;;5014258;28;20437;-75
2022/12/08 03:02:38;;;;;;;36.83;22.13;;;-8.40;99.90;;;;;;5015888;28;20881;-77
2022/12/08 03:05:41;;;;;;;32.90;20.17;;;-8.00;99.90;;;;;;5016735;28;20477;-74
2022/12/08 03:08:53;;;;;;;36.07;22.27;;;-7.80;99.90;;;;;;5017793;28;20293;-74
2022/12/08 03:11:39;;;;;;;36.20;23.07;;;-7.90;99.90;;;;;;5021075;28;20872;-75
2022/12/08 03:14:08;;;;;;;41.27;22.00;;;-8.20;99.90;;;;;;5014007;28;20588;-77
2022/12/08 03:16:37;;;;;;;31.40;21.77;;;-8.00;99.90;;;;;;5017688;28;20479;-74
2022/12/08 03:19:17;;;;;;;39.20;23.37;;;-8.20;99.90;;;;;;5017966;28;20454;-77
2022/12/08 03:21:45;;;;;;;35.17;20.70;;;-8.00;99.90;;;;;;5031022;28;20422;-75
2022/12/08 03:24:14;;;;;;;39.80;23.03;;;-8.40;99.90;;;;;;5017817;28;20509;-73
2022/12/08 03:26:45;;;;;;;32.40;21.80;;;-8.40;99.90;;;;;;5017582;28;20741;-74
2022/12/08 03:29:12;;;;;;;37.70;20.83;;;-8.00;99.90;;;;;;5017203;28;20867;-74
2022/12/08 03:31:43;;;;;;;36.20;22.03;;;-8.40;99.90;;;;;;5017168;28;20929;-74
2022/12/08 03:34:10;;;;;;;29.73;21.90;;;-8.40;99.90;;;;;;5017355;28;20609;-75
2022/12/08 03:36:36;;;;;;;35.57;22.17;;;-7.80;99.90;;;;;;5017576;28;20465;-78
2022/12/08 03:39:03;;;;;;;31.57;22.40;;;-7.90;99.90;;;;;;5016938;28;20430;-74
2022/12/08 03:41:29;;;;;;;40.47;22.37;;;-8.60;99.90;;;;;;5017572;28;20181;-79
2022/12/08 03:43:59;;;;;;;34.43;21.70;;;-7.90;99.90;;;;;;5017178;28;20430;-74
2022/12/08 03:46:27;;;;;;;33.97;21.17;;;-8.10;99.90;;;;;;5017901;28;20173;-73
2022/12/08 03:48:54;;;;;;;36.30;21.43;;;-8.00;99.90;;;;;;5017234;28;20457;-80
2022/12/08 03:51:20;;;;;;;39.80;22.20;;;-7.80;99.90;;;;;;5026430;28;20438;-78
2022/12/08 03:53:47;;;;;;;33.80;20.30;;;-7.50;99.90;;;;;;5021218;28;20473;-77
2022/12/08 03:56:34;;;;;;;32.73;22.33;;;-7.90;99.90;;;;;;5030124;28;20431;-79
2022/12/08 03:59:00;;;;;;;34.17;20.30;;;-7.50;99.90;;;;;;5016591;28;20426;-78
2022/12/08 04:01:26;;;;;;;29.37;19.90;;;-7.60;99.90;;;;;;5016753;28;20430;-79
2022/12/08 04:03:52;;;;;;;37.27;19.97;;;-7.90;99.90;;;;;;5017320;28;20447;-80
2022/12/08 04:06:18;;;;;;;32.43;19.43;;;-7.90;99.90;;;;;;5016809;28;20430;-75
2022/12/08 04:08:44;;;;;;;31.50;19.03;;;-8.40;99.90;;;;;;5016026;28;20275;-74
2022/12/08 04:11:10;;;;;;;27.37;18.33;;;-8.60;99.90;;;;;;5016549;28;20414;-73
2022/12/08 04:13:38;;;;;;;34.47;19.37;;;-8.00;99.90;;;;;;5015470;28;20209;-74
2022/12/08 04:16:05;;;;;;;35.77;21.03;;;-8.00;99.90;;;;;;5016830;28;20431;-81
2022/12/08 04:18:31;;;;;;;38.43;22.13;;;-7.90;99.90;;;;;;5029035;28;20423;-73
2022/12/08 04:20:57;;;;;;;35.97;20.17;;;-7.60;99.90;;;;;;5016624;28;20526;-76
2022/12/08 04:23:23;;;;;;;27.73;19.20;;;-7.70;99.90;;;;;;5016928;28;20521;-80
2022/12/08 04:25:50;;;;;;;24.60;17.67;;;-7.40;99.90;;;;;;5016322;28;20217;-77
2022/12/08 04:28:16;;;;;;;30.27;18.67;;;-8.00;99.90;;;;;;5016219;28;20182;-77
2022/12/08 04:30:42;;;;;;;30.37;18.80;;;-8.30;99.90;;;;;;5016936;28;20423;-74
2022/12/08 04:33:07;;;;;;;28.57;18.13;;;-7.90;99.90;;;;;;5016269;28;20201;-79
2022/12/08 04:35:33;;;;;;;36.10;20.07;;;-7.80;99.90;;;;;;5026283;28;20177;-77
2022/12/08 04:37:59;;;;;;;34.57;19.73;;;-7.90;99.90;;;;;;5016084;28;20190;-74
2022/12/08 04:40:25;;;;;;;31.00;21.40;;;-8.10;99.90;;;;;;5025266;28;20593;-72
2022/12/08 04:42:51;;;;;;;31.13;19.67;;;-8.00;99.90;;;;;;5015638;28;20496;-73
2022/12/08 04:45:17;;;;;;;30.57;18.90;;;-7.80;99.90;;;;;;5016176;28;20196;-76
2022/12/08 04:47:43;;;;;;;28.27;19.83;;;-8.10;99.90;;;;;;5015956;28;20488;-73
2022/12/08 04:50:09;;;;;;;25.73;18.60;;;-7.60;99.90;;;;;;5015754;28;20624;-76
2022/12/08 04:52:35;;;;;;;29.73;20.13;;;-7.60;99.90;;;;;;5015710;28;20181;-76
2022/12/08 04:55:02;;;;;;;35.47;21.27;;;-7.90;99.90;;;;;;5015279;28;20450;-74
2022/12/08 04:57:27;;;;;;;30.27;19.27;;;-7.50;99.90;;;;;;5016254;28;20518;-75
2022/12/08 04:59:53;;;;;;;29.17;19.50;;;-7.40;99.90;;;;;;5028208;28;20509;-73
2022/12/08 05:02:19;;;;;;;29.83;17.97;;;-7.30;99.90;;;;;;5015963;28;20181;-73
2022/12/08 05:04:44;;;;;;;41.27;19.17;;;-7.30;99.90;;;;;;5015671;28;20557;-72
2022/12/08 05:07:10;;;;;;;26.33;18.53;;;-7.60;99.90;;;;;;5015379;28;20189;-73
2022/12/08 05:09:36;;;;;;;30.50;20.33;;;-8.10;99.90;;;;;;5015719;28;20182;-72
2022/12/08 05:12:02;;;;;;;31.67;19.50;;;-8.50;99.90;;;;;;5015109;28;20177;-73
2022/12/08 05:14:27;;;;;;;36.13;20.40;;;-8.50;99.90;;;;;;5020275;28;20507;-73
2022/12/08 05:16:53;;;;;;;31.20;18.00;;;-8.20;99.90;;;;;;5015856;28;20459;-73
2022/12/08 05:19:19;;;;;;;28.13;17.80;;;-7.90;99.90;;;;;;5015534;28;20192;-74
2022/12/08 05:21:45;;;;;;;27.97;18.47;;;-6.80;99.90;;;;;;5014979;28;20181;-73
2022/12/08 05:24:10;;;;;;;35.30;18.97;;;-8.20;99.90;;;;;;5015164;28;20196;-74
2022/12/08 05:26:36;;;;;;;31.20;17.00;;;-8.40;99.90;;;;;;5015028;28;20192;-80
2022/12/08 05:29:02;;;;;;;24.27;15.67;;;-8.50;99.90;;;;;;5015488;28;20189;-75
2022/12/08 05:31:28;;;;;;;31.07;17.87;;;-8.20;99.90;;;;;;5015325;28;20532;-74
2022/12/08 05:33:54;;;;;;;39.73;20.97;;;-7.90;99.90;;;;;;5047364;28;20469;-77
2022/12/08 05:36:19;;;;;;;30.50;18.30;;;-7.80;99.90;;;;;;5015024;28;20189;-74
2022/12/08 05:38:46;;;;;;;30.17;18.13;;;-8.20;99.90;;;;;;5015460;28;20173;-80
2022/12/08 05:41:15;;;;;;;30.43;17.60;;;-6.70;99.90;;;;;;5015278;28;20537;-75
2022/12/08 05:43:41;;;;;;;22.53;17.00;;;-8.80;99.90;;;;;;5015468;28;20913;-73
2022/12/08 05:46:07;;;;;;;34.37;17.90;;;-8.60;99.90;;;;;;5015550;28;20445;-73
2022/12/08 05:48:34;;;;;;;26.30;16.77;;;-8.40;99.90;;;;;;5015329;28;20185;-79
2022/12/08 05:51:00;;;;;;;38.57;16.87;;;-8.00;99.90;;;;;;5016040;28;20510;-76
2022/12/08 05:53:26;;;;;;;22.83;16.77;;;-8.10;99.90;;;;;;5014527;28;20713;-72
2022/12/08 05:55:52;;;;;;;25.30;16.23;;;-8.10;99.90;;;;;;5014975;28;20690;-75
2022/12/08 05:58:19;;;;;;;27.20;15.40;;;-8.20;99.90;;;;;;5019493;28;20423;-72
2022/12/08 06:00:46;;;;;;;26.27;16.90;;;-8.50;99.90;;;;;;5018886;28;20181;-72
2022/12/08 06:03:13;;;;;;;22.23;14.47;;;-7.90;99.90;;;;;;5014986;28;20435;-79
2022/12/08 06:05:40;;;;;;;22.70;16.13;;;-7.80;99.90;;;;;;5020438;28;20748;-79
2022/12/08 06:08:06;;;;;;;29.93;16.67;;;-7.80;99.90;;;;;;5014712;28;20870;-77
2022/12/08 06:10:32;;;;;;;24.23;15.80;;;-7.70;99.90;;;;;;5015339;28;20441;-78
2022/12/08 06:12:58;;;;;;;21.33;14.17;;;-8.10;99.90;;;;;;5014573;28;20213;-79
2022/12/08 06:15:24;;;;;;;23.30;14.83;;;-7.80;99.90;;;;;;5015353;28;20472;-81
2022/12/08 06:17:49;;;;;;;20.53;13.27;;;-7.60;99.90;;;;;;5015737;28;20597;-79
2022/12/08 06:20:15;;;;;;;23.07;14.93;;;-7.90;99.90;;;;;;5015130;28;20185;-85
2022/12/08 06:22:41;;;;;;;20.47;13.67;;;-7.60;99.90;;;;;;5015610;28;20483;-83
2022/12/08 06:25:07;;;;;;;21.30;14.57;;;-7.80;99.90;;;;;;5015437;28;20545;-83
2022/12/08 06:27:33;;;;;;;29.13;15.10;;;-8.20;99.90;;;;;;5014850;28;20240;-82
2022/12/08 06:29:59;;;;;;;20.53;14.47;;;-7.10;99.90;;;;;;5015207;28;20434;-83
2022/12/08 06:32:25;;;;;;;23.33;14.13;;;-7.20;99.90;;;;;;5015429;28;20260;-85
2022/12/08 06:34:51;;;;;;;20.57;12.60;;;-6.80;99.90;;;;;;5014881;28;20221;-80
2022/12/08 06:37:17;;;;;;;23.07;13.43;;;-6.70;99.90;;;;;;5017695;28;20434;-78
2022/12/08 06:39:44;;;;;;;21.70;14.80;;;-6.50;99.90;;;;;;5020874;28;20496;-81
2022/12/08 06:44:54;;;;;;;19.40;13.43;;;-7.50;99.90;;;;;;5018835;28;20432;-80
2022/12/08 06:47:22;;;;;;;20.07;13.93;;;-7.70;99.90;;;;;;5018285;28;20422;-84
2022/12/08 06:49:48;;;;;;;19.33;11.57;;;-7.40;99.90;;;;;;5019198;28;20255;-82
2022/12/08 06:52:14;;;;;;;23.80;13.63;;;-7.50;99.90;;;;;;5018923;28;20877;-82
2022/12/08 06:54:40;;;;;;;20.83;13.10;;;-6.80;99.90;;;;;;5019874;28;20603;-82
2022/12/08 06:57:05;;;;;;;27.47;14.17;;;-6.90;99.90;;;;;;5028266;28;20208;-75
2022/12/08 06:59:31;;;;;;;19.60;12.93;;;-6.80;99.90;;;;;;5030409;28;20185;-74
2022/12/08 07:01:57;;;;;;;15.93;11.47;;;-6.90;99.90;;;;;;5027570;28;20190;-74
2022/12/08 07:04:23;;;;;;;22.00;13.43;;;-6.50;99.90;;;;;;5038189;28;20225;-82
2022/12/08 07:06:49;;;;;;;18.30;11.83;;;-6.70;99.90;;;;;;5023925;28;20189;-77
2022/12/08 07:09:14;;;;;;;18.43;11.80;;;-6.50;99.90;;;;;;5024503;28;20296;-81
2022/12/08 07:11:40;;;;;;;17.87;10.93;;;-7.30;99.90;;;;;;5021100;28;20189;-80
2022/12/08 07:14:06;;;;;;;20.23;12.20;;;-7.50;99.90;;;;;;5020388;28;20263;-80
2022/12/08 07:16:32;;;;;;;19.93;12.20;;;-7.60;99.90;;;;;;5032260;28;20189;-78
2022/12/08 07:18:59;;;;;;;21.60;11.80;;;-8.00;99.90;;;;;;5033585;28;20216;-80
2022/12/08 07:21:25;;;;;;;20.00;13.47;;;-7.80;99.90;;;;;;5028912;28;20750;-75
2022/12/08 07:23:51;;;;;;;23.83;12.87;;;-7.90;99.90;;;;;;5026094;28;20442;-79
2022/12/08 07:26:17;;;;;;;18.73;12.27;;;-7.90;99.90;;;;;;5031530;28;20265;-84
2022/12/08 07:28:43;;;;;;;28.03;11.30;;;-8.40;99.90;;;;;;5030361;28;20582;-82
2022/12/08 07:31:17;;;;;;;22.30;13.43;;;-6.40;99.90;;;;;;5029840;28;20554;-81
2022/12/08 07:33:43;;;;;;;27.00;12.33;;;-8.00;99.90;;;;;;5030264;28;20212;-74
2022/12/08 07:36:09;;;;;;;18.27;12.80;;;-8.00;99.90;;;;;;5031675;28;20506;-74
2022/12/08 07:38:34;;;;;;;22.37;12.70;;;-8.40;99.90;;;;;;5025923;28;20288;-79
2022/12/08 07:41:00;;;;;;;19.57;12.30;;;-8.10;99.90;;;;;;5031651;28;20189;-81
2022/12/08 07:43:26;;;;;;;21.47;12.60;;;-8.40;99.90;;;;;;5019535;28;20592;-80
2022/12/08 07:45:52;;;;;;;18.77;12.63;;;-7.90;99.90;;;;;;5017888;28;20430;-80
2022/12/08 07:48:18;;;;;;;20.57;12.07;;;-7.70;99.90;;;;;;5017174;28;20581;-82
2022/12/08 07:50:44;;;;;;;16.27;11.70;;;-8.30;99.90;;;;;;5022845;28;20189;-78
2022/12/08 07:53:11;;;;;;;17.87;12.43;;;-8.10;99.90;;;;;;5023507;28;20493;-84
2022/12/08 07:55:43;;;;;;;18.27;12.37;;;-8.60;99.90;;;;;;5028128;28;20461;-81
2022/12/08 07:58:10;;;;;;;19.57;12.33;;;-8.80;99.90;;;;;;5018925;28;20934;-84
2022/12/08 08:00:36;;;;;;;19.70;13.80;;;-8.70;99.90;;;;;;5016940;28;20422;-79
2022/12/08 08:03:02;;;;;;;21.27;13.43;;;-8.80;99.90;;;;;;5017236;28;20431;-79
2022/12/08 08:05:28;;;;;;;20.80;12.63;;;-8.70;99.90;;;;;;5017035;28;20445;-80
2022/12/08 08:07:53;;;;;;;16.47;12.07;;;-8.80;99.90;;;;;;5029849;28;20227;-76
2022/12/08 08:10:19;;;;;;;20.07;12.80;;;-8.80;99.90;;;;;;5016235;28;20209;-78
2022/12/08 08:12:45;;;;;;;24.00;12.77;;;-8.30;99.90;;;;;;5017644;28;20495;-82
2022/12/08 08:15:11;;;;;;;28.23;16.27;;;-8.70;99.90;;;;;;5016658;28;20182;-74
2022/12/08 08:17:37;;;;;;;20.53;13.27;;;-8.70;99.90;;;;;;5016727;28;20194;-73
2022/12/08 08:20:08;;;;;;;26.20;12.87;;;-9.10;99.90;;;;;;5017592;28;20723;-73
2022/12/08 08:22:35;;;;;;;21.83;13.80;;;-8.50;99.90;;;;;;5016406;28;20255;-70
2022/12/08 08:25:01;;;;;;;27.60;13.57;;;-9.10;99.90;;;;;;5016895;28;20432;-72
2022/12/08 08:27:26;;;;;;;28.40;14.30;;;-8.40;99.90;;;;;;5016687;28;20423;-73
2022/12/08 08:29:52;;;;;;;23.67;13.27;;;-8.50;99.90;;;;;;5022313;28;20188;-70
2022/12/08 08:32:18;;;;;;;28.77;13.23;;;-8.30;99.90;;;;;;5017449;28;20181;-78
2022/12/08 08:34:44;;;;;;;33.93;15.77;;;-8.30;99.90;;;;;;5016466;28;20208;-73
2022/12/08 08:37:10;;;;;;;21.87;15.27;;;-7.80;99.90;;;;;;5016565;28;20604;-71
2022/12/08 08:39:36;;;;;;;24.83;13.53;;;-7.60;99.90;;;;;;5016514;28;20221;-69
2022/12/08 08:42:01;;;;;;;25.30;15.03;;;-7.50;99.90;;;;;;5016789;28;20177;-71
2022/12/08 08:44:27;;;;;;;29.30;14.13;;;-8.30;99.90;;;;;;5015398;28;20247;-71
2022/12/08 08:46:53;;;;;;;30.53;14.77;;;-7.90;99.90;;;;;;5029101;28;20199;-72
2022/12/08 08:49:19;;;;;;;21.07;13.17;;;-8.00;99.90;;;;;;5016175;28;20272;-71
2022/12/08 08:51:45;;;;;;;25.47;13.30;;;-8.30;99.90;;;;;;5016100;28;20189;-69
2022/12/08 08:54:10;;;;;;;22.70;14.87;;;-8.80;99.90;;;;;;5029356;28;20592;-70
2022/12/08 08:56:36;;;;;;;27.77;14.70;;;-9.00;99.90;;;;;;5015713;28;20513;-68
2022/12/08 08:59:02;;;;;;;23.40;14.07;;;-8.80;99.90;;;;;;5015202;28;20188;-69
2022/12/08 09:01:28;;;;;;;34.93;14.17;;;-8.80;99.90;;;;;;5015784;28;20647;-69
2022/12/08 09:03:55;;;;;;;26.27;14.30;;;-8.50;99.90;;;;;;5019476;28;20533;-71
2022/12/08 09:06:21;;;;;;;19.97;13.40;;;-8.30;99.90;;;;;;5015322;28;20439;-71
2022/12/08 09:08:48;;;;;;;22.17;14.80;;;-8.50;99.90;;;;;;5015720;28;20435;-71
2022/12/08 09:11:14;;;;;;;24.90;12.47;;;-8.30;99.90;;;;;;5015333;28;20485;-73
2022/12/08 09:13:40;;;;;;;23.37;14.47;;;-7.70;99.90;;;;;;5015557;28;20462;-75
2022/12/08 09:16:07;;;;;;;22.70;12.13;;;-7.90;99.90;;;;;;5015780;28;20540;-80
2022/12/08 09:18:34;;;;;;;20.63;14.40;;;-7.60;99.90;;;;;;5016965;28;20190;-72
2022/12/08 09:21:05;;;;;;;21.43;13.27;;;-7.80;99.90;;;;;;5015627;28;20870;-79
2022/12/08 09:23:31;;;;;;;20.67;12.77;;;-8.10;99.90;;;;;;5016575;28;20452;-78
2022/12/08 09:25:56;;;;;;;27.90;14.00;;;-8.00;99.90;;;;;;5014165;28;20945;-76
2022/12/08 09:28:22;;;;;;;26.30;14.77;;;-9.00;99.90;;;;;;5014688;28;20192;-72
2022/12/08 09:30:50;;;;;;;23.67;14.03;;;-9.20;99.90;;;;;;5015021;28;20193;-79
2022/12/08 09:33:15;;;;;;;21.37;14.40;;;-8.50;99.90;;;;;;5014801;28;20232;-78
2022/12/08 09:35:41;;;;;;;22.10;13.07;;;-8.40;99.90;;;;;;5015167;28;20874;-74
2022/12/08 09:38:07;;;;;;;45.67;18.17;;;-8.20;99.90;;;;;;5015333;28;20191;-78
2022/12/08 09:40:40;;;;;;;24.27;13.13;;;-6.60;99.90;;;;;;5016169;28;20260;-78
2022/12/08 09:43:24;;;;;;;23.80;12.53;;;-8.10;99.90;;;;;;5016006;28;20592;-80
2022/12/08 09:45:50;;;;;;;23.30;13.03;;;-8.30;99.90;;;;;;5014813;28;20438;-77
2022/12/08 09:48:23;;;;;;;21.60;13.63;;;-8.50;99.90;;;;;;5014701;28;20549;-79
2022/12/08 09:50:51;;;;;;;24.30;12.07;;;-8.20;99.90;;;;;;5017361;28;20868;-77
2022/12/08 09:53:52;;;;;;;20.53;13.63;;;-8.00;99.90;;;;;;5014947;28;20462;-72
2022/12/08 09:56:21;;;;;;;19.37;13.27;;;-9.10;99.90;;;;;;5013092;28;20442;-77
2022/12/08 09:58:57;;;;;;;27.33;12.10;;;-9.00;99.90;;;;;;5015685;28;20431;-77
2022/12/08 10:01:27;;;;;;;21.47;10.97;;;-9.00;99.90;;;;;;5021285;28;20472;-78
2022/12/08 10:03:54;;;;;;;24.93;10.90;;;-8.80;99.90;;;;;;5014434;28;20893;-79
2022/12/08 10:06:31;;;;;;;22.50;11.20;;;-8.80;99.90;;;;;;5014510;28;20433;-75
2022/12/08 10:08:59;;;;;;;21.33;12.97;;;-8.40;99.90;;;;;;5017054;28;20530;-79
2022/12/08 10:11:58;;;;;;;37.00;16.20;;;-8.30;99.90;;;;;;5015772;28;20428;-69
2022/12/08 10:14:32;;;;;;;19.90;13.53;;;-8.50;99.90;;;;;;5018164;28;20462;-77
2022/12/08 10:17:20;;;;;;;15.30;11.40;;;-7.90;99.90;;;;;;5018263;28;20452;-73
2022/12/08 10:19:48;;;;;;;17.30;10.93;;;-7.90;99.90;;;;;;5035516;28;20790;-77
2022/12/08 10:22:21;;;;;;;14.83;10.00;;;-8.90;99.90;;;;;;5021633;28;20457;-77
2022/12/08 10:25:17;;;;;;;22.30;12.00;;;-8.90;99.90;;;;;;5018189;28;20489;-75
2022/12/08 10:27:50;;;;;;;18.07;9.67;;;-9.50;99.90;;;;;;5018235;28;20807;-78
2022/12/08 10:30:17;;;;;;;14.03;10.17;;;-9.00;99.90;;;;;;5050917;28;21067;-77
2022/12/08 10:32:46;;;;;;;21.13;11.27;;;-9.00;99.90;;;;;;5031459;28;20462;-77
2022/12/08 10:35:15;;;;;;;18.90;11.83;;;-9.10;99.90;;;;;;5018665;28;20522;-74
2022/12/08 10:37:53;;;;;;;21.63;12.00;;;-8.80;99.90;;;;;;5018900;28;20961;-76
2022/12/08 10:40:19;;;;;;;19.23;11.37;;;-8.40;99.90;;;;;;5018296;28;20426;-74
2022/12/08 10:42:47;;;;;;;24.63;11.00;;;-8.80;99.90;;;;;;5018404;28;20696;-78
2022/12/08 10:45:22;;;;;;;19.37;11.10;;;-8.30;99.90;;;;;;5018332;28;20259;-79
2022/12/08 10:48:03;;;;;;;15.73;10.93;;;-9.00;99.90;;;;;;5018441;28;20432;-79
2022/12/08 10:50:40;;;;;;;17.03;10.77;;;-9.20;99.90;;;;;;5018766;28;20957;-78
2022/12/08 10:53:18;;;;;;;25.80;12.90;;;-9.50;99.90;;;;;;5017995;28;20886;-72
2022/12/08 10:55:51;;;;;;;28.47;13.47;;;-9.20;99.90;;;;;;5018106;28;20457;-72
2022/12/08 10:58:40;;;;;;;17.40;10.37;;;-9.00;99.90;;;;;;5018024;28;20426;-78
2022/12/08 11:01:12;;;;;;;15.57;10.93;;;-9.00;99.90;;;;;;5018020;28;20441;-80
2022/12/08 11:04:02;;;;;;;18.10;10.67;;;-8.80;99.90;;;;;;5017664;28;20541;-77
2022/12/08 11:06:27;;;;;;;24.60;11.17;;;-8.20;99.90;;;;;;5016650;28;20497;-76
2022/12/08 11:08:56;;;;;;;17.50;9.40;;;-5.90;99.90;;;;;;5016719;28;20438;-73
2022/12/08 11:11:37;;;;;;;16.80;10.57;;;-7.90;99.90;;;;;;5021337;28;20196;-77
2022/12/08 11:14:11;;;;;;;19.63;10.47;;;-8.60;99.90;;;;;;5016620;28;20817;-70
2022/12/08 11:16:41;;;;;;;18.57;12.90;;;-8.20;99.90;;;;;;5028625;28;20472;-73
2022/12/08 11:19:15;;;;;;;31.33;11.27;;;-7.80;99.90;;;;;;5029136;28;20956;-71
2022/12/08 11:21:41;;;;;;;12.27;9.90;;;-7.70;99.90;;;;;;5026085;28;20509;-74
2022/12/08 11:24:13;;;;;;;10.70;9.60;;;-7.90;99.90;;;;;;5029088;28;20572;-70
2022/12/08 11:26:44;;;;;;;25.67;9.87;;;-7.70;99.90;;;;;;5028888;28;20433;-70
2022/12/08 11:29:11;;;;;;;18.43;11.10;;;-7.90;99.90;;;;;;5030189;28;20431;-70
2022/12/08 11:31:48;;;;;;;18.73;10.63;;;-7.60;99.90;;;;;;5015931;28;20431;-72
2022/12/08 11:34:24;;;;;;;20.70;12.23;;;-9.40;99.90;;;;;;5016154;28;20633;-73
2022/12/08 11:36:52;;;;;;;16.10;9.77;;;-8.70;99.90;;;;;;5015615;28;20436;-73
2022/12/08 11:39:18;;;;;;;25.33;10.60;;;-8.40;99.90;;;;;;5018853;28;20430;-72
2022/12/08 11:41:45;;;;;;;18.90;10.20;;;-8.50;99.90;;;;;;5029867;28;20483;-74
2022/12/08 11:44:39;;;;;;;15.63;9.40;;;-8.00;99.90;;;;;;5030477;28;20873;-73
2022/12/08 11:47:33;;;;;;;14.67;8.83;;;-7.80;99.90;;;;;;5028371;28;20438;-73
2022/12/08 11:50:20;;;;;;;13.13;8.83;;;-8.00;99.90;;;;;;5042791;28;20438;-76
2022/12/08 11:52:49;;;;;;;14.67;9.27;;;-8.20;99.90;;;;;;5025250;28;20430;-74
2022/12/08 11:55:33;;;;;;;20.97;9.27;;;-7.50;99.90;;;;;;5028860;28;20454;-74
2022/12/08 11:58:22;;;;;;;24.27;10.53;;;-8.00;99.90;;;;;;5024673;28;20431;-76
2022/12/08 12:00:49;;;;;;;14.00;9.10;;;-7.80;99.90;;;;;;5012517;28;20435;-75
2022/12/08 12:03:31;;;;;;;14.30;10.57;;;-8.20;99.90;;;;;;4969837;28;1346833;-74
2022/12/08 12:06:15;;;;;;;12.47;8.30;;;-8.70;99.90;;;;;;5016777;28;20988;-72
2022/12/08 12:08:44;;;;;;;19.70;8.73;;;-8.30;99.90;;;;;;5016208;28;20419;-72
2022/12/08 12:14:44;;;;;;;14.13;8.97;;;-8.70;99.90;;;;;;5016905;28;20505;-73
2022/12/08 12:17:45;;;;;;;15.17;8.33;;;-8.20;99.90;;;;;;5016578;28;20418;-72
2022/12/08 12:20:14;;;;;;;15.80;8.83;;;-8.30;99.90;;;;;;5016480;28;20427;-72
2022/12/08 12:22:43;;;;;;;11.90;8.57;;;-8.10;99.90;;;;;;5015931;28;20433;-72
2022/12/08 12:25:21;;;;;;;14.63;8.70;;;-8.20;99.90;;;;;;5016583;28;20517;-72
2022/12/08 12:27:48;;;;;;;15.43;9.40;;;-9.10;99.90;;;;;;5016747;28;20433;-76
2022/12/08 12:30:24;;;;;;;15.20;9.33;;;-9.40;99.90;;;;;;5016501;28;20473;-74
2022/12/08 12:32:57;;;;;;;12.07;8.33;;;-9.30;99.90;;;;;;5016345;28;20426;-73
2022/12/08 12:35:39;;;;;;;14.20;9.33;;;-9.40;99.90;;;;;;5015330;28;20414;-75
2022/12/08 12:39:16;;;;;;;11.83;7.37;;;-9.40;99.90;;;;;;5026216;28;20438;-74
2022/12/08 12:41:13;;;;;;;12.67;8.03;;;-9.30;99.90;;;;;;5015799;28;20910;-74
2022/12/08 12:43:39;;;;;;;9.23;6.80;;;-9.10;99.90;;;;;;5016316;28;20720;-74
2022/12/08 12:46:23;;;;;;;9.50;6.93;;;-8.90;99.90;;;;;;5016232;28;20434;-73
2022/12/08 12:48:50;;;;;;;11.63;7.17;;;-8.90;99.90;;;;;;5016091;28;20524;-75
2022/12/08 12:51:45;;;;;;;15.47;7.43;;;-7.90;99.90;;;;;;5022447;28;20439;-73
2022/12/08 12:54:27;;;;;;;14.03;8.73;;;-8.20;99.90;;;;;;5015542;28;20520;-72